Time;durP1;ratioP1;P1;durP2;ratioP2;P2;SDS_P1;SDS_P2;PMS_P1;PMS_P2;Temp;Humidity;BMP_temperature;BMP_pressure;BME280_temperature;BME280_humidity;BME280_pressure;Samples;Min_cycle;Max_cycle;Signal;HPM_P1;HPM_P2
2022/10/19 00:00:20;;;;;;;28.93;17.93;;;;;;;;;;4422532;32;20351;-88
2022/10/19 00:02:50;;;;;;;33.37;15.80;;;;;;;;;;4422749;32;20558;-89
2022/10/19 00:05:18;;;;;;;31.17;17.63;;;;;;;;;;4422345;32;20673;-88
2022/10/19 00:07:44;;;;;;;34.10;17.47;;;;;;;;;;4422276;32;20231;-88
2022/10/19 00:10:12;;;;;;;32.83;18.27;;;;;;;;;;4422529;32;20227;-89
2022/10/19 00:12:40;;;;;;;32.07;18.70;;;;;;;;;;4421054;32;20245;-88
2022/10/19 00:15:09;;;;;;;34.83;20.93;;;;;;;;;;4422452;32;20246;-88
2022/10/19 00:17:37;;;;;;;31.03;19.83;;;;;;;;;;4422302;32;20266;-87
2022/10/19 00:20:04;;;;;;;40.03;24.70;;;;;;;;;;4421352;32;20283;-88
2022/10/19 00:22:31;;;;;;;45.40;25.03;;;;;;;;;;4422280;32;20213;-88
2022/10/19 00:24:58;;;;;;;53.37;25.77;;;;;;;;;;4422261;32;20598;-89
2022/10/19 00:27:25;;;;;;;49.87;25.43;;;;;;;;;;4422289;32;20259;-89
2022/10/19 00:29:54;;;;;;;35.80;21.17;;;;;;;;;;4422228;32;20229;-88
2022/10/19 00:32:22;;;;;;;41.67;23.17;;;;;;;;;;4422106;32;20217;-88
2022/10/19 00:34:49;;;;;;;43.87;24.03;;;;;;;;;;4421969;32;20665;-89
2022/10/19 00:37:18;;;;;;;39.27;23.17;;;;;;;;;;4422711;32;20634;-89
2022/10/19 00:39:45;;;;;;;33.57;17.20;;;;;;;;;;4422126;32;20237;-88
2022/10/19 00:42:13;;;;;;;24.23;12.50;;;;;;;;;;4421602;32;20229;-88
2022/10/19 00:45:05;;;;;;;11.17;8.33;;;;;;;;;;4421967;32;20228;-88
2022/10/19 00:47:32;;;;;;;19.43;9.97;;;;;;;;;;4422455;32;20262;-88
2022/10/19 00:49:59;;;;;;;16.83;10.70;;;;;;;;;;4422117;32;20210;-89
2022/10/19 00:52:30;;;;;;;17.70;11.27;;;;;;;;;;4421928;32;20219;-88
2022/10/19 00:54:59;;;;;;;15.20;9.50;;;;;;;;;;4421973;32;20244;-89
2022/10/19 00:57:29;;;;;;;13.27;9.47;;;;;;;;;;4422120;32;20663;-88
2022/10/19 00:59:59;;;;;;;12.77;9.53;;;;;;;;;;4422597;32;20270;-89
2022/10/19 01:02:27;;;;;;;16.63;9.27;;;;;;;;;;4421978;32;20282;-89
2022/10/19 01:04:54;;;;;;;22.27;9.33;;;;;;;;;;4421816;32;20331;-88
2022/10/19 01:07:21;;;;;;;16.93;9.63;;;;;;;;;;4422629;32;20209;-88
2022/10/19 01:09:49;;;;;;;17.63;8.60;;;;;;;;;;4422751;32;20229;-89
2022/10/19 01:12:29;;;;;;;15.57;9.00;;;;;;;;;;4422494;32;20216;-88
2022/10/19 01:15:09;;;;;;;14.00;9.57;;;;;;;;;;4421560;32;20245;-89
2022/10/19 01:17:50;;;;;;;13.27;9.77;;;;;;;;;;4422456;32;20280;-89
2022/10/19 01:20:47;;;;;;;19.40;9.63;;;;;;;;;;4422673;32;20212;-87
2022/10/19 01:23:54;;;;;;;12.87;9.13;;;;;;;;;;4422590;32;20284;-89
2022/10/19 01:26:37;;;;;;;17.73;10.07;;;;;;;;;;4411016;32;20240;-90
2022/10/19 01:29:14;;;;;;;14.20;9.63;;;;;;;;;;4422202;32;20308;-90
2022/10/19 01:31:48;;;;;;;17.23;10.90;;;;;;;;;;4425016;32;20213;-91
2022/10/19 01:34:21;;;;;;;17.63;10.17;;;;;;;;;;4425150;32;20296;-89
2022/10/19 01:36:54;;;;;;;14.40;9.57;;;;;;;;;;4429606;32;20209;-91
2022/10/19 01:39:28;;;;;;;17.00;9.53;;;;;;;;;;4430570;32;20281;-89
2022/10/19 01:42:01;;;;;;;16.10;10.33;;;;;;;;;;4429620;32;20204;-89
2022/10/19 01:44:42;;;;;;;18.20;10.13;;;;;;;;;;4424684;32;20270;-89
2022/10/19 01:47:16;;;;;;;16.47;9.37;;;;;;;;;;4425558;32;20644;-87
2022/10/19 01:49:49;;;;;;;15.23;9.33;;;;;;;;;;4425056;32;20254;-88
2022/10/19 01:52:19;;;;;;;15.27;8.37;;;;;;;;;;4426733;32;20227;-87
2022/10/19 01:54:49;;;;;;;13.40;8.67;;;;;;;;;;4427126;32;20217;-90
2022/10/19 01:57:21;;;;;;;17.73;9.13;;;;;;;;;;4426260;32;20564;-88
2022/10/19 01:59:52;;;;;;;11.50;7.70;;;;;;;;;;4430007;32;20209;-90
2022/10/19 02:02:22;;;;;;;16.40;8.63;;;;;;;;;;4431108;32;20221;-89
2022/10/19 02:04:50;;;;;;;20.00;10.77;;;;;;;;;;4431349;32;20237;-90
2022/10/19 02:07:20;;;;;;;14.50;9.97;;;;;;;;;;4432639;32;20208;-90
2022/10/19 02:09:47;;;;;;;22.40;12.23;;;;;;;;;;4432696;32;20227;-90
2022/10/19 02:12:16;;;;;;;22.57;13.23;;;;;;;;;;4431064;32;20336;-87
2022/10/19 02:14:44;;;;;;;23.23;14.40;;;;;;;;;;4424106;32;20274;-87
2022/10/19 02:17:13;;;;;;;30.80;14.93;;;;;;;;;;4424391;32;20226;-87
2022/10/19 02:19:42;;;;;;;25.07;14.17;;;;;;;;;;4424401;32;20325;-88
2022/10/19 02:22:13;;;;;;;30.73;14.83;;;;;;;;;;4424584;32;20651;-90
2022/10/19 02:24:42;;;;;;;21.60;13.63;;;;;;;;;;4423321;32;20248;-87
2022/10/19 02:27:10;;;;;;;24.07;16.97;;;;;;;;;;4424431;32;20231;-88
2022/10/19 02:29:38;;;;;;;25.50;16.93;;;;;;;;;;4424271;32;20205;-87
2022/10/19 02:32:09;;;;;;;21.97;16.40;;;;;;;;;;4424432;32;20334;-87
2022/10/19 02:34:37;;;;;;;28.63;15.50;;;;;;;;;;4424297;32;20247;-87
2022/10/19 02:37:06;;;;;;;26.00;16.23;;;;;;;;;;4423288;32;20256;-90
2022/10/19 02:39:35;;;;;;;28.27;16.30;;;;;;;;;;4424292;32;20226;-88
2022/10/19 02:42:07;;;;;;;23.33;16.00;;;;;;;;;;4424256;32;20268;-88
2022/10/19 02:44:42;;;;;;;21.77;15.50;;;;;;;;;;4424160;32;20213;-87
2022/10/19 02:47:15;;;;;;;32.73;21.67;;;;;;;;;;4424486;32;20230;-87
2022/10/19 02:49:43;;;;;;;30.60;21.43;;;;;;;;;;4424031;32;20258;-88
2022/10/19 02:52:13;;;;;;;37.40;20.70;;;;;;;;;;4423583;32;20694;-87
2022/10/19 02:54:42;;;;;;;22.50;16.20;;;;;;;;;;4422981;32;20227;-88
2022/10/19 02:57:16;;;;;;;25.47;15.80;;;;;;;;;;4424003;32;20210;-87
2022/10/19 02:59:43;;;;;;;26.00;14.20;;;;;;;;;;4422947;32;20290;-88
2022/10/19 03:02:10;;;;;;;21.80;14.30;;;;;;;;;;4423484;32;20231;-87
2022/10/19 03:04:43;;;;;;;22.93;16.03;;;;;;;;;;4423134;32;20233;-87
2022/10/19 03:07:13;;;;;;;24.63;15.67;;;;;;;;;;4423905;32;20209;-88
2022/10/19 03:09:41;;;;;;;26.17;15.10;;;;;;;;;;4424038;32;20258;-87
2022/10/19 03:12:07;;;;;;;20.90;14.10;;;;;;;;;;4422510;32;20209;-87
2022/10/19 03:14:34;;;;;;;17.97;12.60;;;;;;;;;;4424100;32;20582;-87
2022/10/19 03:17:02;;;;;;;23.37;13.50;;;;;;;;;;4423287;32;20221;-87
2022/10/19 03:19:31;;;;;;;27.80;13.17;;;;;;;;;;4423857;32;20233;-88
2022/10/19 03:21:58;;;;;;;22.37;12.10;;;;;;;;;;4433657;32;20256;-87
2022/10/19 03:24:37;;;;;;;20.70;11.43;;;;;;;;;;4435218;32;20269;-87
2022/10/19 03:27:04;;;;;;;26.97;12.27;;;;;;;;;;4429662;32;20228;-88
2022/10/19 03:29:31;;;;;;;26.67;13.97;;;;;;;;;;4424767;32;20205;-88
2022/10/19 03:32:00;;;;;;;23.20;15.27;;;;;;;;;;4423344;32;20209;-87
2022/10/19 03:34:34;;;;;;;23.17;13.23;;;;;;;;;;4421922;32;20236;-88
2022/10/19 03:37:01;;;;;;;27.27;13.03;;;;;;;;;;4422563;32;20626;-88
2022/10/19 03:39:29;;;;;;;26.50;14.40;;;;;;;;;;4422831;32;20221;-88
2022/10/19 03:41:59;;;;;;;26.90;15.27;;;;;;;;;;4422982;32;20209;-88
2022/10/19 03:44:26;;;;;;;22.67;14.53;;;;;;;;;;4423526;32;20288;-88
2022/10/19 03:46:53;;;;;;;26.83;18.77;;;;;;;;;;4422757;32;20225;-87
2022/10/19 03:49:22;;;;;;;23.20;15.97;;;;;;;;;;4422848;32;20209;-87
2022/10/19 03:51:49;;;;;;;38.60;18.93;;;;;;;;;;4422577;32;20243;-88
2022/10/19 03:54:17;;;;;;;38.63;21.83;;;;;;;;;;4422063;32;20284;-88
2022/10/19 03:56:46;;;;;;;53.80;27.63;;;;;;;;;;4422596;32;20726;-88
2022/10/19 03:59:15;;;;;;;44.70;26.50;;;;;;;;;;4422620;32;20217;-87
2022/10/19 04:01:45;;;;;;;54.60;29.37;;;;;;;;;;4421494;32;20229;-88
2022/10/19 04:04:14;;;;;;;65.17;36.57;;;;;;;;;;4421650;32;20241;-90
2022/10/19 04:06:43;;;;;;;70.57;40.37;;;;;;;;;;4422473;32;20216;-88
2022/10/19 04:09:13;;;;;;;76.33;41.93;;;;;;;;;;4422940;32;20273;-90
2022/10/19 04:11:42;;;;;;;77.93;42.80;;;;;;;;;;4422266;32;20209;-88
2022/10/19 04:14:13;;;;;;;76.67;42.87;;;;;;;;;;4422825;32;20233;-88
2022/10/19 04:16:43;;;;;;;71.63;42.43;;;;;;;;;;4422812;32;20622;-88
2022/10/19 04:19:15;;;;;;;71.33;42.10;;;;;;;;;;4422385;32;20320;-87
2022/10/19 04:21:45;;;;;;;69.47;40.10;;;;;;;;;;4409480;32;20237;-87
2022/10/19 04:24:14;;;;;;;64.70;37.70;;;;;;;;;;4422902;32;20221;-88
2022/10/19 04:26:43;;;;;;;65.83;37.63;;;;;;;;;;4422510;32;20247;-87
2022/10/19 04:29:16;;;;;;;59.57;36.63;;;;;;;;;;4422617;32;20206;-88
2022/10/19 04:31:43;;;;;;;66.13;36.17;;;;;;;;;;4422894;32;20215;-88
2022/10/19 04:34:09;;;;;;;40.93;28.17;;;;;;;;;;4422109;32;20214;-88
2022/10/19 04:36:37;;;;;;;42.90;21.27;;;;;;;;;;4422436;32;20329;-87
2022/10/19 04:39:07;;;;;;;23.47;16.00;;;;;;;;;;4422639;32;20217;-87
2022/10/19 04:41:35;;;;;;;22.27;15.07;;;;;;;;;;4422408;32;20206;-87
2022/10/19 04:44:03;;;;;;;42.00;23.57;;;;;;;;;;4421684;32;20248;-87
2022/10/19 04:46:32;;;;;;;53.50;29.17;;;;;;;;;;4422192;32;20221;-90
2022/10/19 04:49:00;;;;;;;43.97;27.00;;;;;;;;;;4422164;32;20205;-88
2022/10/19 04:51:27;;;;;;;42.47;26.43;;;;;;;;;;4421848;32;20201;-88
2022/10/19 04:53:57;;;;;;;55.40;27.20;;;;;;;;;;4421857;32;20205;-88
2022/10/19 04:56:28;;;;;;;53.83;26.93;;;;;;;;;;4421823;32;20542;-87
2022/10/19 04:58:56;;;;;;;57.63;29.87;;;;;;;;;;4421809;32;20213;-87
2022/10/19 05:01:24;;;;;;;48.00;26.53;;;;;;;;;;4422075;32;20219;-88
2022/10/19 05:03:55;;;;;;;43.30;25.07;;;;;;;;;;4420508;32;20586;-87
2022/10/19 05:06:23;;;;;;;71.53;35.60;;;;;;;;;;4422054;32;20633;-88
2022/10/19 05:08:50;;;;;;;139.87;72.37;;;;;;;;;;4421332;32;20221;-88
2022/10/19 05:11:17;;;;;;;102.90;53.27;;;;;;;;;;4421812;32;20268;-87
2022/10/19 05:13:46;;;;;;;59.47;34.27;;;;;;;;;;4421587;32;20243;-87
2022/10/19 05:16:16;;;;;;;62.40;32.43;;;;;;;;;;4421681;32;20193;-88
2022/10/19 05:18:46;;;;;;;54.67;28.80;;;;;;;;;;4423095;32;20225;-87
2022/10/19 05:21:17;;;;;;;54.57;30.67;;;;;;;;;;4425032;32;20209;-88
2022/10/19 05:23:45;;;;;;;53.13;30.93;;;;;;;;;;4422945;32;20625;-88
2022/10/19 05:26:14;;;;;;;45.93;28.37;;;;;;;;;;4424600;32;20205;-88
2022/10/19 05:28:41;;;;;;;49.73;28.50;;;;;;;;;;4424921;32;20611;-88
2022/10/19 05:31:10;;;;;;;49.33;26.87;;;;;;;;;;4424987;32;20596;-88
2022/10/19 05:33:39;;;;;;;63.90;35.10;;;;;;;;;;4423264;32;20759;-89
2022/10/19 05:36:17;;;;;;;64.40;37.53;;;;;;;;;;4424733;32;20289;-89
2022/10/19 05:38:45;;;;;;;115.03;63.33;;;;;;;;;;4425021;32;20227;-90
2022/10/19 05:41:14;;;;;;;110.20;67.60;;;;;;;;;;4425108;32;20205;-89
2022/10/19 05:43:44;;;;;;;109.07;68.13;;;;;;;;;;4424009;32;20275;-89
2022/10/19 05:46:16;;;;;;;114.73;66.73;;;;;;;;;;4424660;32;20710;-90
2022/10/19 05:48:45;;;;;;;108.27;64.73;;;;;;;;;;4424568;32;20213;-89
2022/10/19 05:51:14;;;;;;;96.40;57.10;;;;;;;;;;4423377;32;20280;-89
2022/10/19 05:53:47;;;;;;;96.77;55.37;;;;;;;;;;4425117;32;20229;-89
2022/10/19 05:56:17;;;;;;;87.97;54.47;;;;;;;;;;4424944;32;20612;-88
2022/10/19 05:58:45;;;;;;;86.67;52.27;;;;;;;;;;4423271;32;20290;-88
2022/10/19 06:01:12;;;;;;;86.10;49.80;;;;;;;;;;4423912;32;20290;-88
2022/10/19 06:03:39;;;;;;;68.33;40.13;;;;;;;;;;4423723;32;20217;-89
2022/10/19 06:06:10;;;;;;;81.90;40.83;;;;;;;;;;4425528;32;20218;-89
2022/10/19 06:08:38;;;;;;;74.77;42.90;;;;;;;;;;4425644;32;20584;-88
2022/10/19 06:11:08;;;;;;;81.13;45.53;;;;;;;;;;4424914;32;20206;-88
2022/10/19 06:13:35;;;;;;;85.27;47.10;;;;;;;;;;4423744;32;20288;-89
2022/10/19 06:16:02;;;;;;;84.90;48.43;;;;;;;;;;4423712;32;20258;-89
2022/10/19 06:18:31;;;;;;;77.67;48.10;;;;;;;;;;4423539;32;20602;-88
2022/10/19 06:21:05;;;;;;;73.37;44.57;;;;;;;;;;4423411;32;20233;-89
2022/10/19 06:23:32;;;;;;;56.70;33.67;;;;;;;;;;4423788;32;20205;-88
2022/10/19 06:26:01;;;;;;;46.43;28.10;;;;;;;;;;4423811;32;20205;-88
2022/10/19 06:28:33;;;;;;;47.80;27.67;;;;;;;;;;4423961;32;20576;-89
2022/10/19 06:31:00;;;;;;;31.77;21.83;;;;;;;;;;4424094;32;20289;-89
2022/10/19 06:33:30;;;;;;;38.83;24.00;;;;;;;;;;4424087;32;20361;-88
2022/10/19 06:36:05;;;;;;;48.33;24.53;;;;;;;;;;4424336;32;20720;-88
2022/10/19 06:38:34;;;;;;;35.43;23.37;;;;;;;;;;4424547;32;20201;-88
2022/10/19 06:41:02;;;;;;;47.17;25.37;;;;;;;;;;4424318;32;20213;-89
2022/10/19 06:43:29;;;;;;;34.17;23.93;;;;;;;;;;4410027;32;20659;-89
2022/10/19 06:46:04;;;;;;;37.47;24.07;;;;;;;;;;4424290;32;20593;-89
2022/10/19 06:48:32;;;;;;;42.80;25.33;;;;;;;;;;4422911;32;20274;-89
2022/10/19 06:50:59;;;;;;;44.73;27.03;;;;;;;;;;4423627;32;20259;-89
2022/10/19 06:53:28;;;;;;;53.60;29.23;;;;;;;;;;4423624;32;20576;-89
2022/10/19 06:55:58;;;;;;;48.20;29.63;;;;;;;;;;4423920;32;20237;-89
2022/10/19 06:58:25;;;;;;;49.57;33.10;;;;;;;;;;4422868;32;20206;-89
2022/10/19 07:00:57;;;;;;;54.00;34.63;;;;;;;;;;4423283;32;20248;-89
2022/10/19 07:03:29;;;;;;;58.43;33.00;;;;;;;;;;4421923;32;20296;-88
2022/10/19 07:05:58;;;;;;;50.13;32.33;;;;;;;;;;4423143;32;20388;-89
2022/10/19 07:08:26;;;;;;;48.97;32.47;;;;;;;;;;4423006;32;20227;-89
2022/10/19 07:10:55;;;;;;;54.43;32.97;;;;;;;;;;4423358;32;20213;-89
2022/10/19 07:13:22;;;;;;;50.87;30.70;;;;;;;;;;4422805;32;20529;-89
2022/10/19 07:15:51;;;;;;;60.00;31.53;;;;;;;;;;4423299;32;20273;-89
2022/10/19 07:18:19;;;;;;;60.83;31.37;;;;;;;;;;4423480;32;20272;-89
2022/10/19 07:20:54;;;;;;;56.30;29.30;;;;;;;;;;4423193;32;20244;-89
2022/10/19 07:23:21;;;;;;;42.23;27.80;;;;;;;;;;4423146;32;20242;-89
2022/10/19 07:25:48;;;;;;;50.83;27.00;;;;;;;;;;4422485;32;20341;-89
2022/10/19 07:28:15;;;;;;;52.47;29.40;;;;;;;;;;4423232;32;20223;-88
2022/10/19 07:30:42;;;;;;;46.07;26.70;;;;;;;;;;4422772;32;20223;-89
2022/10/19 07:33:11;;;;;;;53.53;27.60;;;;;;;;;;4424231;32;20264;-88
2022/10/19 07:35:39;;;;;;;55.73;27.23;;;;;;;;;;4424375;32;20286;-89
2022/10/19 07:38:07;;;;;;;50.87;29.33;;;;;;;;;;4423100;32;20245;-90
2022/10/19 07:40:34;;;;;;;54.93;32.57;;;;;;;;;;4422448;32;20256;-90
2022/10/19 07:43:01;;;;;;;44.00;29.80;;;;;;;;;;4425024;32;20209;-89
2022/10/19 07:45:28;;;;;;;31.20;18.60;;;;;;;;;;4427322;32;20779;-91
2022/10/19 07:47:57;;;;;;;27.97;17.97;;;;;;;;;;4428344;32;20285;-89
2022/10/19 07:50:28;;;;;;;30.87;18.40;;;;;;;;;;4427658;32;20268;-89
2022/10/19 07:52:56;;;;;;;17.50;11.67;;;;;;;;;;4427269;32;20245;-90
2022/10/19 07:55:27;;;;;;;16.17;10.63;;;;;;;;;;4429951;32;20239;-89
2022/10/19 07:57:54;;;;;;;21.63;12.30;;;;;;;;;;4431882;32;20256;-89
2022/10/19 08:00:22;;;;;;;23.70;16.00;;;;;;;;;;4431716;32;20236;-89
2022/10/19 08:02:49;;;;;;;15.00;11.93;;;;;;;;;;4426746;32;20268;-88
2022/10/19 08:05:17;;;;;;;19.60;11.80;;;;;;;;;;4427902;32;20368;-89
2022/10/19 08:07:45;;;;;;;18.47;11.83;;;;;;;;;;4427783;32;20202;-89
2022/10/19 08:10:15;;;;;;;26.47;15.47;;;;;;;;;;4428359;32;20232;-89
2022/10/19 08:12:42;;;;;;;18.73;12.30;;;;;;;;;;4429644;32;20266;-88
2022/10/19 08:15:25;;;;;;;35.20;15.47;;;;;;;;;;4427852;32;20227;-88
2022/10/19 08:17:52;;;;;;;16.57;11.93;;;;;;;;;;4428916;32;20294;-89
2022/10/19 08:20:19;;;;;;;19.23;12.77;;;;;;;;;;4431517;32;20295;-87
2022/10/19 08:22:46;;;;;;;23.70;13.77;;;;;;;;;;4433519;32;20360;-88
2022/10/19 08:25:14;;;;;;;21.53;12.37;;;;;;;;;;4433503;32;20235;-89
2022/10/19 08:27:44;;;;;;;28.47;15.17;;;;;;;;;;4430984;32;20270;-89
2022/10/19 08:30:14;;;;;;;28.07;15.23;;;;;;;;;;4425741;32;20221;-88
2022/10/19 08:32:42;;;;;;;16.70;11.53;;;;;;;;;;4422878;32;20220;-89
2022/10/19 08:35:09;;;;;;;22.10;13.47;;;;;;;;;;4422559;32;20290;-89
2022/10/19 08:37:36;;;;;;;20.27;11.97;;;;;;;;;;4423388;32;20210;-88
2022/10/19 08:40:04;;;;;;;15.10;9.53;;;;;;;;;;4421953;32;20275;-88
2022/10/19 08:42:46;;;;;;;26.07;12.03;;;;;;;;;;4421962;32;20217;-88
2022/10/19 08:45:40;;;;;;;21.70;11.57;;;;;;;;;;4422404;32;20239;-88
2022/10/19 08:48:27;;;;;;;17.33;11.63;;;;;;;;;;4410988;32;20681;-88
2022/10/19 08:50:57;;;;;;;14.47;10.77;;;;;;;;;;4423121;32;20230;-89
2022/10/19 08:53:32;;;;;;;16.23;10.10;;;;;;;;;;4422144;32;20275;-89
2022/10/19 08:56:09;;;;;;;17.83;9.33;;;;;;;;;;4422480;32;20594;-88
2022/10/19 08:58:52;;;;;;;26.17;10.67;;;;;;;;;;4422200;32;20280;-87
2022/10/19 09:01:34;;;;;;;14.70;8.53;;;;;;;;;;4424251;32;20292;-88
2022/10/19 09:04:06;;;;;;;14.30;8.73;;;;;;;;;;4425937;32;20275;-89
2022/10/19 09:06:39;;;;;;;19.97;8.33;;;;;;;;;;4423286;32;20204;-88
2022/10/19 09:09:10;;;;;;;14.83;8.70;;;;;;;;;;4422409;32;20223;-88
2022/10/19 09:11:43;;;;;;;10.67;8.60;;;;;;;;;;4421221;32;20264;-89
2022/10/19 09:14:20;;;;;;;14.43;8.40;;;;;;;;;;4421105;32;20246;-88
2022/10/19 09:16:47;;;;;;;14.70;8.33;;;;;;;;;;4421892;32;20230;-88
2022/10/19 09:19:24;;;;;;;22.43;9.10;;;;;;;;;;4421865;32;20213;-88
2022/10/19 09:21:54;;;;;;;14.33;7.63;;;;;;;;;;4422575;32;20246;-88
2022/10/19 09:24:42;;;;;;;8.60;6.73;;;;;;;;;;4422480;32;20527;-87
2022/10/19 09:27:19;;;;;;;10.73;6.50;;;;;;;;;;4421498;32;20296;-88
2022/10/19 09:29:51;;;;;;;13.50;7.20;;;;;;;;;;4421597;32;20201;-88
2022/10/19 09:32:26;;;;;;;15.23;8.37;;;;;;;;;;4421441;32;20225;-88
2022/10/19 09:34:55;;;;;;;14.70;7.40;;;;;;;;;;4420800;32;20256;-88
2022/10/19 09:37:23;;;;;;;11.77;7.90;;;;;;;;;;4422456;32;20225;-88
2022/10/19 09:39:51;;;;;;;10.53;6.17;;;;;;;;;;4421792;32;20699;-88
2022/10/19 09:42:23;;;;;;;10.80;6.43;;;;;;;;;;4421992;32;20664;-89
2022/10/19 09:44:52;;;;;;;13.53;7.13;;;;;;;;;;4421669;32;20233;-89
2022/10/19 09:47:43;;;;;;;10.10;6.40;;;;;;;;;;4421772;32;20322;-89
2022/10/19 09:50:17;;;;;;;10.60;7.50;;;;;;;;;;4418110;32;20308;-88
2022/10/19 09:52:46;;;;;;;11.67;5.97;;;;;;;;;;4421359;32;20227;-88
2022/10/19 09:55:23;;;;;;;9.67;5.70;;;;;;;;;;4421252;32;20226;-88
2022/10/19 09:57:51;;;;;;;15.73;6.13;;;;;;;;;;4421320;32;20367;-88
2022/10/19 10:00:21;;;;;;;9.87;5.37;;;;;;;;;;4421576;32;20270;-88
2022/10/19 10:02:50;;;;;;;9.60;6.17;;;;;;;;;;4420964;32;20233;-88
2022/10/19 10:05:19;;;;;;;12.03;5.53;;;;;;;;;;4423732;32;20566;-88
2022/10/19 10:07:46;;;;;;;12.03;5.90;;;;;;;;;;4424964;32;20244;-88
2022/10/19 10:10:21;;;;;;;8.17;5.33;;;;;;;;;;4424197;32;20243;-89
2022/10/19 10:12:48;;;;;;;13.80;5.35;;;;;;;;;;4424781;32;20624;-89
2022/10/19 10:15:21;;;;;;;10.50;5.72;;;;;;;;;;4424048;32;20263;-89
2022/10/19 10:17:50;;;;;;;6.53;5.17;;;;;;;;;;4424641;32;20634;-88
2022/10/19 10:20:22;;;;;;;8.75;5.43;;;;;;;;;;4424740;32;20682;-88
2022/10/19 10:22:57;;;;;;;9.07;6.22;;;;;;;;;;4425316;32;20585;-89
2022/10/19 10:25:27;;;;;;;8.65;5.85;;;;;;;;;;4432124;32;20224;-88
2022/10/19 10:27:57;;;;;;;8.50;4.90;;;;;;;;;;4435253;32;20162;-89
2022/10/19 10:30:29;;;;;;;15.48;5.97;;;;;;;;;;4437939;32;20258;-89
2022/10/19 10:32:56;;;;;;;7.20;4.53;;;;;;;;;;4423925;32;20235;-89
2022/10/19 10:35:27;;;;;;;10.82;5.65;;;;;;;;;;4423485;32;20225;-87
2022/10/19 10:38:07;;;;;;;9.68;6.15;;;;;;;;;;4424074;32;20267;-88
2022/10/19 10:40:35;;;;;;;7.47;5.18;;;;;;;;;;4423421;32;20221;-88
2022/10/19 10:43:09;;;;;;;11.55;5.32;;;;;;;;;;4422758;32;20232;-88
2022/10/19 10:45:44;;;;;;;12.02;4.93;;;;;;;;;;4423142;32;20218;-88
2022/10/19 10:48:27;;;;;;;13.13;6.25;;;;;;;;;;4423797;32;20295;-88
2022/10/19 10:50:57;;;;;;;14.02;8.73;;;;;;;;;;4423162;32;20644;-88
2022/10/19 10:53:40;;;;;;;12.77;5.43;;;;;;;;;;4423336;32;20249;-88
2022/10/19 10:56:21;;;;;;;5.40;3.90;;;;;;;;;;4421997;32;20638;-89
2022/10/19 10:58:55;;;;;;;9.55;6.97;;;;;;;;;;4423254;32;20223;-89
2022/10/19 11:01:29;;;;;;;7.93;4.37;;;;;;;;;;4423637;32;20217;-89
2022/10/19 11:04:03;;;;;;;10.27;5.50;;;;;;;;;;4423330;32;20217;-88
2022/10/19 11:06:33;;;;;;;8.80;4.62;;;;;;;;;;4423635;32;20303;-88
2022/10/19 11:09:14;;;;;;;20.85;4.95;;;;;;;;;;4423194;32;20229;-88
2022/10/19 11:11:46;;;;;;;8.13;4.03;;;;;;;;;;4423588;32;20221;-89
2022/10/19 11:14:28;;;;;;;11.12;4.43;;;;;;;;;;4423076;32;20231;-90
2022/10/19 11:17:04;;;;;;;8.98;4.18;;;;;;;;;;4421364;32;20269;-88
2022/10/19 11:19:35;;;;;;;7.30;4.37;;;;;;;;;;4423040;32;20804;-88
2022/10/19 11:22:15;;;;;;;9.25;4.75;;;;;;;;;;4423179;32;20234;-88
2022/10/19 11:25:01;;;;;;;9.88;4.85;;;;;;;;;;4423361;32;20205;-88
2022/10/19 11:27:41;;;;;;;8.50;6.22;;;;;;;;;;4423939;32;20216;-89
2022/10/19 11:30:11;;;;;;;6.70;3.92;;;;;;;;;;4423663;32;20227;-88
2022/10/19 11:32:54;;;;;;;7.75;4.78;;;;;;;;;;4421852;32;20754;-89
2022/10/19 11:35:33;;;;;;;6.25;4.03;;;;;;;;;;4423516;32;20197;-87
2022/10/19 11:38:09;;;;;;;11.98;5.47;;;;;;;;;;4423030;32;20280;-88
2022/10/19 11:40:43;;;;;;;6.05;4.18;;;;;;;;;;4422342;32;20229;-88
2022/10/19 11:43:14;;;;;;;6.03;3.75;;;;;;;;;;4422992;32;20209;-88
2022/10/19 11:45:51;;;;;;;7.28;3.75;;;;;;;;;;4423309;32;20333;-89
2022/10/19 11:48:47;;;;;;;7.55;4.07;;;;;;;;;;4423113;32;20760;-90
2022/10/19 11:51:21;;;;;;;9.82;3.90;;;;;;;;;;4423191;32;20614;-88
2022/10/19 11:54:12;;;;;;;11.48;4.28;;;;;;;;;;4423037;32;20295;-88
2022/10/19 11:56:44;;;;;;;14.15;4.72;;;;;;;;;;4423032;32;20205;-88
2022/10/19 11:59:21;;;;;;;5.00;3.62;;;;;;;;;;4422772;32;20288;-87
2022/10/19 12:01:58;;;;;;;15.23;5.45;;;;;;;;;;4423097;32;20553;-88
2022/10/19 12:04:49;;;;;;;6.87;3.45;;;;;;;;;;4422410;32;20260;-88
2022/10/19 12:07:50;;;;;;;9.70;3.05;;;;;;;;;;4423006;32;20261;-87
2022/10/19 12:10:26;;;;;;;6.82;4.95;;;;;;;;;;4423227;32;20204;-88
2022/10/19 12:12:57;;;;;;;8.27;3.35;;;;;;;;;;4422959;32;20213;-88
2022/10/19 12:15:30;;;;;;;9.20;3.10;;;;;;;;;;4422773;32;20205;-88
2022/10/19 12:18:03;;;;;;;4.97;2.15;;;;;;;;;;4421509;32;20233;-88
2022/10/19 12:20:42;;;;;;;8.70;3.65;;;;;;;;;;4422983;32;20245;-88
2022/10/19 12:23:24;;;;;;;5.30;2.58;;;;;;;;;;4421589;32;20263;-90
2022/10/19 12:25:53;;;;;;;8.32;2.78;;;;;;;;;;4422640;32;20221;-88
2022/10/19 12:28:23;;;;;;;15.30;3.55;;;;;;;;;;4423398;32;20205;-89
2022/10/19 12:30:52;;;;;;;11.57;3.62;;;;;;;;;;4431152;32;20235;-89
2022/10/19 12:33:23;;;;;;;5.18;2.75;;;;;;;;;;4429547;32;20248;-91
2022/10/19 12:36:02;;;;;;;5.75;2.72;;;;;;;;;;4426572;32;20218;-88
2022/10/19 12:38:39;;;;;;;5.87;2.60;;;;;;;;;;4423835;32;20213;-89
2022/10/19 12:41:14;;;;;;;6.35;3.05;;;;;;;;;;4422491;32;20281;-88
2022/10/19 12:43:58;;;;;;;9.85;3.22;;;;;;;;;;4422893;32;20259;-89
2022/10/19 12:46:35;;;;;;;4.32;3.20;;;;;;;;;;4422188;32;20654;-88
2022/10/19 12:49:56;;;;;;;7.75;3.17;;;;;;;;;;4422704;32;20263;-88
2022/10/19 12:52:47;;;;;;;7.28;4.70;;;;;;;;;;4401344;32;20322;-88
2022/10/19 12:55:33;;;;;;;8.32;4.30;;;;;;;;;;4421856;32;20260;-88
2022/10/19 12:58:19;;;;;;;5.45;2.20;;;;;;;;;;4422076;32;20576;-88
2022/10/19 13:00:58;;;;;;;3.75;2.60;;;;;;;;;;4422130;32;20266;-88
2022/10/19 13:03:34;;;;;;;6.28;3.10;;;;;;;;;;4422245;32;20221;-88
2022/10/19 13:06:09;;;;;;;7.82;3.90;;;;;;;;;;4421744;32;20252;-88
2022/10/19 13:08:43;;;;;;;8.43;3.53;;;;;;;;;;4422901;32;20196;-87
2022/10/19 13:11:13;;;;;;;8.65;3.10;;;;;;;;;;4421613;32;20236;-88
2022/10/19 13:13:59;;;;;;;7.43;3.00;;;;;;;;;;4422225;32;20240;-88
2022/10/19 13:16:53;;;;;;;6.97;3.20;;;;;;;;;;4422637;32;20276;-88
2022/10/19 13:19:21;;;;;;;5.72;2.58;;;;;;;;;;4422385;32;20233;-88
2022/10/19 13:21:54;;;;;;;5.90;2.75;;;;;;;;;;4422168;32;20232;-88
2022/10/19 13:24:37;;;;;;;5.20;2.85;;;;;;;;;;4422404;32;20208;-88
2022/10/19 13:27:30;;;;;;;5.45;2.95;;;;;;;;;;4420284;32;20288;-91
2022/10/19 13:29:56;;;;;;;3.55;2.08;;;;;;;;;;4422301;32;20205;-88
2022/10/19 13:32:51;;;;;;;12.68;2.87;;;;;;;;;;4422148;32;20229;-88
2022/10/19 13:35:36;;;;;;;7.25;2.97;;;;;;;;;;4395167;32;20233;-88
2022/10/19 13:38:34;;;;;;;15.82;3.70;;;;;;;;;;4408578;32;20237;-88
2022/10/19 13:41:07;;;;;;;4.28;2.92;;;;;;;;;;4425479;32;20618;-88
2022/10/19 13:43:39;;;;;;;7.28;2.83;;;;;;;;;;4423546;32;20233;-88
2022/10/19 13:46:12;;;;;;;6.30;3.08;;;;;;;;;;4425072;32;20217;-88
2022/10/19 13:49:00;;;;;;;8.98;2.85;;;;;;;;;;4424445;32;20653;-87
2022/10/19 13:51:34;;;;;;;7.25;2.67;;;;;;;;;;4421852;32;20205;-90
2022/10/19 13:54:13;;;;;;;21.58;4.43;;;;;;;;;;4425194;32;20239;-88
2022/10/19 13:57:00;;;;;;;18.33;4.07;;;;;;;;;;4425135;32;20204;-88
2022/10/19 13:59:52;;;;;;;14.63;10.73;;;;;;;;;;4425480;32;20230;-88
2022/10/19 14:02:53;;;;;;;8.27;5.97;;;;;;;;;;4426777;32;20221;-90
2022/10/19 14:05:49;;;;;;;10.52;5.97;;;;;;;;;;4428465;32;20221;-88
2022/10/19 14:08:39;;;;;;;10.68;4.60;;;;;;;;;;4425307;32;20758;-90
2022/10/19 14:11:14;;;;;;;6.37;2.92;;;;;;;;;;4431721;32;20210;-88
2022/10/19 14:13:42;;;;;;;12.02;5.05;;;;;;;;;;4428067;32;20661;-91
2022/10/19 14:16:20;;;;;;;10.00;4.05;;;;;;;;;;4427113;32;20238;-90
2022/10/19 14:18:54;;;;;;;13.20;7.12;;;;;;;;;;4424643;32;20304;-90
2022/10/19 14:21:30;;;;;;;9.05;2.55;;;;;;;;;;4425581;32;20281;-90
2022/10/19 14:23:58;;;;;;;5.93;3.20;;;;;;;;;;4425149;32;20221;-91
2022/10/19 14:26:28;;;;;;;9.20;2.92;;;;;;;;;;4424283;32;20282;-90
2022/10/19 14:28:58;;;;;;;4.37;2.55;;;;;;;;;;4425795;32;20244;-90
2022/10/19 14:31:33;;;;;;;5.15;3.92;;;;;;;;;;4427011;32;20213;-90
2022/10/19 14:34:03;;;;;;;6.55;3.70;;;;;;;;;;4428756;32;20244;-90
2022/10/19 14:36:36;;;;;;;10.13;2.55;;;;;;;;;;4431158;32;20269;-91
2022/10/19 14:39:04;;;;;;;4.32;2.00;;;;;;;;;;4434714;32;20302;-90
2022/10/19 14:41:34;;;;;;;13.20;6.18;;;;;;;;;;4436496;32;20292;-90
2022/10/19 14:44:30;;;;;;;8.82;4.40;;;;;;;;;;4434005;32;20253;-89
2022/10/19 14:46:57;;;;;;;7.47;3.53;;;;;;;;;;4432438;32;20278;-90
2022/10/19 14:49:26;;;;;;;6.87;4.15;;;;;;;;;;4425435;32;20232;-89
2022/10/19 14:51:59;;;;;;;5.85;4.10;;;;;;;;;;4423299;32;20311;-90
2022/10/19 14:54:31;;;;;;;6.53;4.35;;;;;;;;;;4424424;32;20270;-90
2022/10/19 14:57:02;;;;;;;7.47;4.47;;;;;;;;;;4411426;32;20233;-90